createdAt,value
2019-04-27T00:01:27.168Z,68.60
2019-04-27T00:03:06.079Z,68.60
2019-04-27T00:04:48.757Z,68.60
2019-04-27T00:06:26.198Z,68.50
2019-04-27T00:08:15.168Z,68.60
2019-04-27T00:10:03.859Z,68.50
2019-04-27T00:11:42.078Z,68.60
2019-04-27T00:13:18.748Z,68.40
2019-04-27T00:14:58.817Z,68.50
2019-04-27T00:16:54.258Z,68.60
2019-04-27T00:18:31.413Z,68.40
2019-04-27T00:20:25.617Z,68.30
2019-04-27T00:22:05.446Z,68.40
2019-04-27T00:23:43.002Z,68.30
2019-04-27T00:25:27.076Z,68.30
2019-04-27T00:27:03.287Z,68.40
2019-04-27T00:28:38.979Z,68.30
2019-04-27T00:30:15.466Z,68.30
2019-04-27T00:31:51.056Z,68.30
2019-04-27T00:33:27.914Z,69.00
2019-04-27T00:35:03.934Z,68.20
2019-04-27T00:36:46.890Z,68.30
2019-04-27T00:38:33.749Z,68.20
2019-04-27T00:40:10.983Z,68.30
2019-04-27T00:41:46.505Z,68.20
2019-04-27T00:43:22.927Z,68.20
2019-04-27T00:44:59.769Z,68.00
2019-04-27T00:46:35.300Z,67.90
2019-04-27T00:48:10.816Z,68.00
2019-04-27T00:49:46.410Z,67.90
2019-04-27T00:51:23.172Z,67.90
2019-04-27T00:53:00.010Z,68.00
2019-04-27T00:54:35.701Z,68.00
2019-04-27T00:56:13.938Z,67.90
2019-04-27T00:58:07.658Z,68.70
2019-04-27T00:59:43.211Z,68.00
2019-04-27T01:01:23.395Z,67.90
2019-04-27T01:03:04.625Z,67.70
2019-04-27T01:04:40.145Z,67.80
2019-04-27T01:06:15.680Z,68.10
2019-04-27T01:07:51.198Z,67.80
2019-04-27T01:09:26.976Z,67.80
2019-04-27T01:11:02.984Z,67.70
2019-04-27T01:12:42.981Z,67.70
2019-04-27T01:14:18.652Z,67.60
2019-04-27T01:15:54.227Z,67.60
2019-04-27T01:17:30.207Z,67.70
2019-04-27T01:19:05.728Z,67.60
2019-04-27T01:20:41.251Z,67.60
2019-04-27T01:22:16.780Z,67.70
2019-04-27T01:23:52.311Z,67.60
2019-04-27T01:25:29.459Z,67.40
2019-04-27T01:27:23.191Z,67.70
2019-04-27T01:29:03.154Z,67.60
2019-04-27T01:30:56.580Z,68.20
2019-04-27T01:32:33.957Z,67.40
2019-04-27T01:34:09.839Z,67.30
2019-04-27T01:35:45.364Z,67.30
2019-04-27T01:37:21.172Z,67.30
2019-04-27T01:38:59.454Z,67.50
2019-04-27T01:40:35.286Z,67.40
2019-04-27T01:42:10.812Z,67.40
2019-04-27T01:43:46.326Z,67.30
2019-04-27T01:45:21.855Z,67.30
2019-04-27T01:46:57.389Z,67.30
2019-04-27T01:48:32.892Z,67.30
2019-04-27T01:50:08.865Z,67.40
2019-04-27T01:51:44.382Z,67.50
2019-04-27T01:53:19.929Z,67.30
2019-04-27T01:54:55.726Z,67.30
2019-04-27T01:56:31.241Z,67.20
2019-04-27T01:58:10.736Z,67.30
2019-04-27T01:59:44.345Z,67.20
2019-04-27T02:01:39.022Z,67.20
2019-04-27T02:03:16.601Z,67.20
2019-04-27T02:05:09.863Z,67.00
2019-04-27T02:06:48.711Z,67.00
2019-04-27T02:08:24.505Z,67.20
2019-04-27T02:10:00.686Z,67.20
2019-04-27T02:11:36.199Z,67.20
2019-04-27T02:13:11.736Z,67.10
2019-04-27T02:14:49.087Z,67.30
2019-04-27T02:16:24.689Z,67.30
2019-04-27T02:18:00.766Z,67.10
2019-04-27T02:19:36.374Z,67.20
2019-04-27T02:21:11.905Z,67.00
2019-04-27T02:22:48.504Z,66.90
2019-04-27T02:24:24.738Z,67.20
2019-04-27T02:26:00.880Z,67.10
2019-04-27T02:27:38.913Z,67.00
2019-04-27T02:29:19.316Z,67.00
2019-04-27T02:31:05.471Z,67.00
2019-04-27T02:32:51.402Z,67.00
2019-04-27T02:34:32.292Z,67.10
2019-04-27T02:36:12.196Z,67.20
2019-04-27T02:37:45.369Z,67.00
2019-04-27T02:39:21.729Z,67.10
2019-04-27T02:41:00.068Z,67.10
2019-04-27T02:42:39.240Z,67.20
2019-04-27T02:44:19.959Z,66.90
2019-04-27T02:45:55.677Z,66.90
2019-04-27T02:47:31.195Z,66.90
2019-04-27T02:49:07.393Z,67.30
2019-04-27T02:50:45.105Z,67.00
2019-04-27T02:52:29.823Z,67.00
2019-04-27T02:54:04.908Z,66.90
2019-04-27T02:55:41.078Z,66.90
2019-04-27T02:57:16.604Z,66.80
2019-04-27T02:58:52.329Z,66.80
2019-04-27T03:00:29.230Z,66.70
2019-04-27T03:02:10.756Z,66.60
2019-04-27T03:03:46.508Z,67.30
2019-04-27T03:05:26.274Z,66.50
2019-04-27T03:07:01.789Z,66.50
2019-04-27T03:08:39.409Z,66.40
2019-04-27T03:10:14.640Z,66.40
2019-04-27T03:11:50.271Z,66.50
2019-04-27T03:13:30.151Z,66.50
2019-04-27T03:15:14.809Z,66.50
2019-04-27T03:17:00.011Z,66.50
2019-04-27T03:18:40.461Z,66.40
2019-04-27T03:20:20.448Z,66.40
2019-04-27T03:21:59.301Z,66.50
2019-04-27T03:23:35.796Z,66.40
2019-04-27T03:25:15.163Z,66.40
2019-04-27T03:27:00.455Z,66.40
2019-04-27T03:28:36.225Z,66.50
2019-04-27T03:30:13.933Z,66.60
2019-04-27T03:31:53.915Z,66.60
2019-04-27T03:33:26.657Z,66.80
2019-04-27T03:35:03.708Z,66.70
2019-04-27T03:36:39.681Z,66.80
2019-04-27T03:38:15.678Z,67.00
2019-04-27T03:39:51.351Z,66.80
2019-04-27T03:41:29.299Z,67.30
2019-04-27T03:43:06.421Z,66.80
2019-04-27T03:44:41.933Z,67.00
2019-04-27T03:46:20.194Z,67.00
2019-04-27T03:47:54.955Z,67.00
2019-04-27T03:49:37.755Z,66.90
2019-04-27T03:51:09.716Z,67.00
2019-04-27T03:53:02.763Z,67.00
2019-04-27T03:54:59.807Z,67.00
2019-04-27T03:56:39.580Z,66.90
2019-04-27T03:58:16.494Z,66.90
2019-04-27T03:59:59.716Z,67.10
2019-04-27T04:01:36.111Z,66.90
2019-04-27T04:03:11.621Z,67.10
2019-04-27T04:04:50.675Z,67.20
2019-04-27T04:06:25.451Z,67.20
2019-04-27T04:08:01.807Z,67.50
2019-04-27T04:09:40.967Z,67.40
2019-04-27T04:11:19.823Z,68.00
2019-04-27T04:13:03.159Z,67.40
2019-04-27T04:14:42.467Z,67.40
2019-04-27T04:16:23.334Z,67.30
2019-04-27T04:17:59.567Z,67.30
2019-04-27T04:19:51.153Z,67.30
2019-04-27T04:21:13.488Z,67.40
2019-04-27T04:22:51.329Z,67.40
2019-04-27T04:24:28.645Z,67.40
2019-04-27T04:26:03.826Z,67.60
2019-04-27T04:27:40.086Z,68.20
2019-04-27T04:29:16.648Z,67.60
2019-04-27T04:30:52.239Z,67.50
2019-04-27T04:32:29.709Z,67.50
2019-04-27T04:34:05.178Z,67.30
2019-04-27T04:35:40.679Z,67.30
2019-04-27T04:37:16.470Z,67.30
2019-04-27T04:38:52.236Z,67.60
2019-04-27T04:40:41.722Z,67.40
2019-04-27T04:42:31.154Z,67.50
2019-04-27T04:44:12.137Z,67.40
2019-04-27T04:46:09.929Z,67.40
2019-04-27T04:47:44.671Z,67.50
2019-04-27T04:49:21.575Z,67.30
2019-04-27T04:50:59.785Z,67.40
2019-04-27T04:52:34.686Z,67.40
2019-04-27T04:54:10.275Z,67.30
2019-04-27T04:55:46.070Z,67.30
2019-04-27T04:57:22.006Z,67.30
2019-04-27T04:58:59.825Z,67.30
2019-04-27T05:00:34.942Z,67.40
2019-04-27T05:02:10.878Z,67.30
2019-04-27T05:03:46.571Z,67.20
2019-04-27T05:05:22.090Z,67.20
2019-04-27T05:06:59.190Z,67.30
2019-04-27T05:08:34.957Z,67.30
2019-04-27T05:10:10.653Z,67.20
2019-04-27T05:11:46.174Z,67.20
2019-04-27T05:13:21.779Z,67.10
2019-04-27T05:14:58.977Z,67.10
2019-04-27T05:16:34.621Z,67.10
2019-04-27T05:18:10.148Z,67.10
2019-04-27T05:19:45.746Z,67.10
2019-04-27T05:21:29.466Z,67.10
2019-04-27T05:23:07.040Z,66.90
2019-04-27T05:24:42.560Z,67.00
2019-04-27T05:26:18.985Z,67.00
2019-04-27T05:27:55.320Z,67.00
2019-04-27T05:29:30.838Z,66.90
2019-04-27T05:31:06.911Z,67.10
2019-04-27T05:32:42.426Z,67.10
2019-04-27T05:34:19.553Z,67.20
2019-04-27T05:35:55.349Z,66.90
2019-04-27T05:37:31.862Z,66.90
2019-04-27T05:39:10.064Z,66.00
2019-04-27T05:40:45.716Z,66.90
2019-04-27T05:42:21.235Z,66.90
2019-04-27T05:43:56.529Z,66.80
2019-04-27T05:46:25.339Z,66.80
2019-04-27T05:48:03.457Z,66.80
2019-04-27T05:49:44.243Z,66.60
2019-04-27T05:51:19.646Z,66.80
2019-04-27T05:52:55.367Z,66.90
2019-04-27T05:54:30.888Z,66.80
2019-04-27T05:56:09.262Z,66.90
2019-04-27T05:57:44.773Z,66.80
2019-04-27T06:00:55.563Z,65.80
2019-04-27T06:02:31.086Z,66.50
2019-04-27T06:04:08.849Z,66.50
2019-04-27T06:05:44.362Z,66.60
2019-04-27T06:07:19.979Z,66.40
2019-04-27T06:08:55.506Z,66.40
2019-04-27T06:10:31.398Z,66.90
2019-04-27T06:12:08.880Z,66.10
2019-04-27T06:13:44.583Z,66.10
2019-04-27T06:15:20.126Z,66.10
2019-04-27T06:16:59.464Z,66.10
2019-04-27T06:18:34.587Z,65.90
2019-04-27T06:20:10.991Z,65.80
2019-04-27T06:21:46.782Z,65.80
2019-04-27T06:23:22.252Z,65.70
2019-04-27T06:24:59.718Z,65.60
2019-04-27T06:26:35.149Z,65.60
2019-04-27T06:28:10.694Z,65.50
2019-04-27T06:29:46.227Z,65.50
2019-04-27T06:31:21.767Z,65.30
2019-04-27T06:32:59.387Z,65.20
2019-04-27T06:34:34.997Z,65.00
2019-04-27T06:36:10.537Z,64.90
2019-04-27T06:37:46.077Z,64.80
2019-04-27T06:39:21.729Z,64.80
2019-04-27T06:40:57.254Z,64.80
2019-04-27T06:42:34.488Z,64.80
2019-04-27T06:44:11.398Z,64.90
2019-04-27T06:45:48.813Z,64.80
2019-04-27T06:47:24.518Z,65.00
2019-04-27T06:49:00.091Z,65.00
2019-04-27T06:50:36.590Z,65.00
2019-04-27T06:52:13.359Z,65.20
2019-04-27T06:53:49.443Z,65.20
2019-04-27T06:55:25.083Z,65.20
2019-04-27T06:57:00.607Z,65.20
2019-04-27T06:58:36.144Z,65.00
2019-04-27T07:00:11.723Z,64.60
2019-04-27T07:01:48.863Z,63.80
2019-04-27T07:03:24.543Z,63.70
2019-04-27T07:05:00.082Z,63.50
2019-04-27T07:06:36.769Z,63.50
2019-04-27T07:08:18.192Z,63.70
2019-04-27T07:09:53.864Z,64.00
2019-04-27T07:11:29.697Z,64.00
2019-04-27T07:13:06.929Z,63.90
2019-04-27T07:14:52.423Z,63.80
2019-04-27T07:16:20.847Z,63.90
2019-04-27T07:17:56.502Z,63.60
2019-04-27T07:19:32.020Z,63.50
2019-04-27T07:21:16.886Z,63.00
2019-04-27T07:22:44.789Z,62.90
2019-04-27T07:24:20.327Z,62.80
2019-04-27T07:25:55.857Z,62.80
2019-04-27T07:27:31.368Z,62.80
2019-04-27T07:29:06.989Z,62.60
2019-04-27T07:30:43.866Z,62.60
2019-04-27T07:32:19.613Z,62.50
2019-04-27T07:33:55.208Z,61.90
2019-04-27T07:35:33.364Z,61.60
2019-04-27T07:37:09.729Z,61.60
2019-04-27T07:38:46.132Z,61.60
2019-04-27T07:40:22.001Z,61.50
2019-04-27T07:41:58.581Z,61.30
2019-04-27T07:43:36.181Z,61.10
2019-04-27T07:45:13.885Z,60.90
2019-04-27T07:46:51.051Z,60.40
2019-04-27T07:48:28.455Z,60.20
2019-04-27T07:50:06.422Z,60.20
2019-04-27T07:51:41.959Z,60.20
2019-04-27T07:54:59.072Z,59.20
2019-04-27T07:56:34.622Z,59.60
2019-04-27T07:58:10.180Z,59.90
2019-04-27T07:59:45.704Z,60.00
2019-04-27T08:01:22.647Z,59.90
2019-04-27T08:02:58.634Z,59.60
2019-04-27T08:04:34.343Z,59.60
2019-04-27T08:06:10.828Z,59.20
2019-04-27T08:07:49.004Z,59.30
2019-04-27T08:09:24.455Z,59.30
2019-04-27T08:11:00.036Z,59.30
2019-04-27T08:12:35.574Z,59.10
2019-04-27T08:14:11.399Z,58.70
2019-04-27T08:15:47.397Z,58.30
2019-04-27T08:17:22.936Z,58.20
2019-04-27T08:19:00.056Z,57.70
2019-04-27T08:20:35.679Z,57.60
2019-04-27T08:22:11.218Z,56.70
2019-04-27T08:23:48.997Z,57.00
2019-04-27T08:25:24.616Z,57.00
2019-04-27T08:27:17.411Z,57.10
2019-04-27T08:29:08.513Z,56.80
2019-04-27T08:30:54.812Z,56.50
2019-04-27T08:32:35.722Z,56.00
2019-04-27T08:34:12.954Z,55.70
2019-04-27T08:35:49.058Z,55.00
2019-04-27T08:37:25.190Z,55.30
2019-04-27T08:39:00.710Z,55.10
2019-04-27T08:40:39.326Z,55.20
2019-04-27T08:42:15.001Z,55.00
2019-04-27T08:43:50.540Z,55.00
2019-04-27T08:45:26.083Z,55.10
2019-04-27T08:47:01.625Z,55.10
2019-04-27T08:48:39.242Z,54.20
2019-04-27T08:50:45.321Z,54.10
2019-04-27T08:52:20.855Z,54.20
2019-04-27T08:53:56.648Z,54.20
2019-04-27T08:55:32.175Z,53.90
2019-04-27T08:57:09.524Z,53.70
2019-04-27T08:58:44.962Z,53.10
2019-04-27T09:00:20.691Z,52.80
2019-04-27T09:01:56.247Z,53.00
2019-04-27T09:03:31.807Z,53.10
2019-04-27T09:05:09.398Z,52.80
2019-04-27T09:06:46.434Z,52.30
2019-04-27T09:08:26.314Z,51.90
2019-04-27T09:10:06.499Z,52.00
2019-04-27T09:11:43.704Z,51.50
2019-04-27T09:13:23.671Z,51.40
2019-04-27T09:15:03.606Z,50.70
2019-04-27T09:16:40.764Z,50.40
2019-04-27T09:18:19.186Z,50.10
2019-04-27T09:20:02.543Z,49.40
2019-04-27T09:21:56.116Z,49.10
2019-04-27T09:23:31.917Z,48.60
2019-04-27T09:25:09.412Z,48.30
2019-04-27T09:26:45.236Z,47.70
2019-04-27T09:28:21.905Z,47.30
2019-04-27T09:29:59.055Z,47.20
2019-04-27T09:31:34.739Z,47.00
2019-04-27T09:33:10.257Z,47.00
2019-04-27T09:34:46.669Z,47.60
2019-04-27T09:36:22.320Z,48.20
2019-04-27T09:37:57.861Z,47.00
2019-04-27T09:39:36.578Z,46.60
2019-04-27T09:41:12.546Z,45.80
2019-04-27T09:42:48.615Z,45.30
2019-04-27T09:44:24.240Z,44.70
2019-04-27T09:46:01.794Z,44.00
2019-04-27T09:47:39.046Z,44.50
2019-04-27T09:52:07.154Z,43.40
2019-04-27T09:53:50.496Z,42.40
2019-04-27T09:55:28.801Z,42.20
2019-04-27T09:57:07.087Z,42.00
2019-04-27T09:58:50.613Z,41.70
2019-04-27T10:00:31.067Z,41.30
2019-04-27T10:02:08.729Z,41.70
2019-04-27T10:03:48.334Z,41.60
2019-04-27T10:05:26.285Z,40.70
2019-04-27T10:07:08.729Z,39.70
2019-04-27T10:08:40.788Z,39.30
2019-04-27T10:10:20.076Z,39.10
2019-04-27T10:11:57.236Z,39.20
2019-04-27T10:13:51.996Z,38.80
2019-04-27T10:16:04.160Z,39.00
2019-04-27T10:17:34.373Z,39.00
2019-04-27T10:19:12.334Z,39.50
2019-04-27T10:21:12.572Z,40.00
2019-04-27T10:23:02.905Z,40.40
2019-04-27T10:24:46.227Z,39.80
2019-04-27T10:26:43.713Z,38.70
2019-04-27T10:28:26.528Z,40.10
2019-04-27T10:34:27.470Z,39.70
2019-04-27T10:36:09.065Z,39.50
2019-04-27T10:41:46.891Z,40.10
2019-04-27T10:43:25.840Z,40.00
2019-04-27T10:45:01.964Z,39.40
2019-04-27T10:46:41.878Z,39.60
2019-04-27T10:48:19.685Z,40.00
2019-04-27T10:49:58.470Z,39.60
2019-04-27T10:51:36.423Z,39.00
2019-04-27T10:53:13.911Z,38.20
2019-04-27T10:54:51.428Z,38.20
2019-04-27T10:56:32.958Z,38.20
2019-04-27T10:58:10.854Z,38.50
2019-04-27T10:59:48.126Z,38.90
2019-04-27T11:01:25.670Z,39.30
2019-04-27T11:03:06.821Z,39.90
2019-04-27T11:05:00.116Z,40.40
2019-04-27T11:06:41.961Z,40.60
2019-04-27T11:08:17.657Z,41.20
2019-04-27T11:09:53.196Z,41.40
2019-04-27T11:11:28.759Z,41.00
2019-04-27T11:13:07.302Z,41.20
2019-04-27T11:14:42.819Z,41.20
2019-04-27T11:16:26.879Z,41.20
2019-04-27T11:18:06.292Z,41.40
2019-04-27T11:19:46.032Z,41.10
2019-04-27T11:21:23.340Z,40.80
2019-04-27T11:23:06.996Z,41.00
2019-04-27T11:24:37.597Z,40.80
2019-04-27T11:26:16.110Z,40.40
2019-04-27T11:27:53.357Z,40.20
2019-04-27T11:29:36.519Z,40.50
2019-04-27T11:31:17.226Z,40.80
2019-04-27T11:32:58.928Z,41.20
2019-04-27T11:34:55.732Z,41.30
2019-04-27T11:36:35.652Z,41.30
2019-04-27T11:38:17.848Z,41.20
2019-04-27T11:39:56.067Z,41.70
2019-04-27T11:41:33.478Z,41.00
2019-04-27T11:43:17.414Z,40.90
2019-04-27T11:44:58.277Z,41.20
2019-04-27T11:46:39.733Z,41.30
2019-04-27T11:48:19.752Z,40.70
2019-04-27T11:50:00.825Z,41.20
2019-04-27T11:51:39.293Z,40.30
2019-04-27T11:53:26.135Z,40.30
2019-04-27T11:55:01.986Z,40.50
2019-04-27T11:56:39.701Z,40.50
2019-04-27T11:58:18.409Z,40.40
2019-04-27T11:59:56.278Z,39.70
2019-04-27T12:01:35.733Z,39.80
2019-04-27T12:03:16.519Z,40.00
2019-04-27T12:04:53.426Z,40.60
2019-04-27T12:06:30.561Z,40.80
2019-04-27T12:08:10.888Z,40.90
2019-04-27T12:09:48.188Z,40.70
2019-04-27T12:11:27.893Z,40.80
2019-04-27T12:13:05.760Z,39.90
2019-04-27T12:14:45.388Z,39.70
2019-04-27T12:16:30.821Z,38.10
2019-04-27T12:18:15.265Z,38.00
2019-04-27T12:19:54.085Z,38.10
2019-04-27T12:21:29.703Z,38.00
2019-04-27T12:23:10.601Z,38.40
2019-04-27T12:24:51.943Z,38.70
2019-04-27T12:26:38.376Z,38.20
2019-04-27T12:28:22.821Z,37.60
2019-04-27T12:30:03.690Z,36.60
2019-04-27T12:31:46.529Z,36.40
2019-04-27T12:33:23.576Z,36.60
2019-04-27T12:35:16.646Z,37.00
2019-04-27T12:36:53.130Z,36.30
2019-04-27T12:38:28.272Z,35.70
2019-04-27T12:40:05.968Z,35.30
2019-04-27T12:41:41.546Z,35.10
2019-04-27T12:43:17.134Z,34.20
2019-04-27T12:44:52.709Z,33.70
2019-04-27T12:46:29.723Z,33.90
2019-04-27T12:48:09.944Z,33.40
2019-04-27T12:49:45.650Z,32.60
2019-04-27T12:51:23.588Z,32.50
2019-04-27T12:53:09.882Z,32.90
2019-04-27T12:54:47.351Z,33.50
2019-04-27T12:56:35.483Z,33.30
2019-04-27T12:58:29.047Z,33.50
2019-04-27T13:00:11.634Z,33.60
2019-04-27T13:01:47.174Z,33.40
2019-04-27T13:03:22.733Z,33.30
2019-04-27T13:04:59.503Z,33.00
2019-04-27T13:06:35.795Z,32.50
2019-04-27T13:08:11.708Z,32.80
2019-04-27T13:09:47.254Z,33.50
2019-04-27T13:11:23.073Z,33.50
2019-04-27T13:12:59.662Z,33.00
2019-04-27T13:14:36.516Z,32.20
2019-04-27T13:16:12.359Z,32.40
2019-04-27T13:17:47.927Z,31.70
2019-04-27T13:19:23.744Z,31.70
2019-04-27T13:20:59.879Z,31.40
2019-04-27T13:22:37.160Z,31.40
2019-04-27T13:24:12.892Z,31.40
2019-04-27T13:25:50.136Z,31.10
2019-04-27T13:27:26.970Z,30.70
2019-04-27T13:29:06.562Z,30.90
2019-04-27T13:30:45.634Z,31.20
2019-04-27T13:32:22.401Z,30.90
2019-04-27T13:34:09.826Z,30.80
2019-04-27T13:36:01.388Z,30.70
2019-04-27T13:37:52.691Z,30.50
2019-04-27T13:39:25.701Z,31.00
2019-04-27T13:41:25.609Z,31.30
2019-04-27T13:42:57.553Z,31.90
2019-04-27T13:57:04.896Z,33.30
2019-04-27T13:58:40.412Z,33.50
2019-04-27T14:00:16.350Z,33.50
2019-04-27T14:01:51.895Z,33.80
2019-04-27T14:03:27.399Z,33.90
2019-04-27T14:05:03.292Z,34.30
2019-04-27T14:08:26.407Z,34.90
2019-04-27T14:10:01.933Z,33.40
2019-04-27T14:11:39.405Z,33.10
2019-04-27T14:13:17.512Z,32.30
2019-04-27T14:14:52.303Z,32.30
2019-04-27T14:16:29.075Z,32.10
2019-04-27T14:18:04.879Z,31.70
2019-04-27T14:19:40.388Z,31.90
2019-04-27T14:21:15.918Z,31.80
2019-04-27T14:22:51.436Z,31.90
2019-04-27T14:24:31.924Z,31.80
2019-04-27T14:26:05.818Z,31.70
2019-04-27T14:27:41.958Z,31.30
2019-04-27T14:29:18.946Z,31.20
2019-04-27T14:30:54.477Z,31.40
2019-04-27T14:32:30.999Z,31.60
2019-04-27T14:34:06.512Z,31.60
2019-04-27T14:35:42.030Z,31.10
2019-04-27T14:37:18.593Z,31.50
2019-04-27T14:38:54.442Z,31.70
2019-04-27T14:40:30.200Z,31.90
2019-04-27T14:42:05.733Z,32.00
2019-04-27T14:43:41.243Z,32.00
2019-04-27T14:45:16.767Z,32.10
2019-04-27T14:46:52.287Z,32.00
2019-04-27T14:48:29.554Z,32.20
2019-04-27T14:50:08.832Z,32.40
2019-04-27T14:51:44.524Z,32.30
2019-04-27T14:53:20.110Z,32.40
2019-04-27T14:54:55.635Z,32.60
2019-04-27T14:56:31.225Z,32.20
2019-04-27T14:58:08.568Z,32.20
2019-04-27T14:59:43.974Z,32.10
2019-04-27T15:01:23.696Z,32.40
2019-04-27T15:02:59.739Z,32.40
2019-04-27T15:04:37.619Z,32.50
2019-04-27T15:06:22.797Z,32.50
2019-04-27T15:08:01.740Z,32.30
2019-04-27T15:09:36.081Z,32.70
2019-04-27T15:11:15.556Z,32.80
2019-04-27T15:12:49.327Z,32.90
2019-04-27T15:14:25.030Z,32.90
2019-04-27T15:16:02.692Z,32.90
2019-04-27T15:17:37.820Z,33.00
2019-04-27T15:19:26.664Z,32.90
2019-04-27T15:21:02.642Z,32.80
2019-04-27T15:22:40.343Z,32.30
2019-04-27T15:24:15.984Z,32.40
2019-04-27T15:25:51.495Z,32.60
2019-04-27T15:27:30.842Z,32.80
2019-04-27T15:29:06.820Z,33.20
2019-04-27T15:30:52.754Z,33.60
2019-04-27T15:32:33.581Z,33.80
2019-04-27T15:34:17.780Z,33.90
2019-04-27T15:35:58.265Z,33.70
2019-04-27T15:37:39.352Z,33.30
2019-04-27T15:39:32.414Z,33.30
2019-04-27T15:41:09.819Z,33.60
2019-04-27T15:42:52.925Z,34.90
2019-04-27T15:44:27.912Z,35.70
2019-04-27T15:46:03.584Z,36.10
2019-04-27T15:47:42.544Z,36.70
2019-04-27T15:49:17.945Z,37.10
2019-04-27T15:50:53.552Z,37.70
2019-04-27T15:52:30.180Z,37.90
2019-04-27T15:54:06.463Z,37.50
2019-04-27T15:55:42.211Z,37.20
2019-04-27T15:57:19.141Z,37.20
2019-04-27T15:58:55.704Z,37.10
2019-04-27T16:00:32.751Z,37.20
2019-04-27T16:02:11.844Z,37.30
2019-04-27T16:03:45.688Z,37.40
2019-04-27T16:05:23.468Z,37.80
2019-04-27T16:07:00.587Z,38.10
2019-04-27T16:08:38.302Z,38.50
2019-04-27T16:10:14.165Z,38.70
2019-04-27T16:11:57.682Z,38.90
2019-04-27T16:13:32.980Z,39.60
2019-04-27T16:15:07.981Z,39.20
2019-04-27T16:16:43.675Z,39.20
2019-04-27T16:18:19.498Z,39.80
2019-04-27T16:19:55.051Z,40.10
2019-04-27T16:21:31.629Z,40.20
2019-04-27T16:23:08.747Z,40.60
2019-04-27T16:24:44.379Z,40.60
2019-04-27T16:26:20.018Z,41.10
2019-04-27T16:27:55.591Z,41.10
2019-04-27T16:29:31.603Z,41.10
2019-04-27T16:31:07.734Z,41.40
2019-04-27T16:32:44.494Z,41.60
2019-04-27T16:34:20.581Z,41.40
2019-04-27T16:36:00.357Z,41.40
2019-04-27T16:37:52.015Z,41.80
2019-04-27T16:39:28.694Z,41.90
2019-04-27T16:41:04.297Z,41.90
2019-04-27T16:42:40.708Z,42.20
2019-04-27T16:44:16.236Z,42.20
2019-04-27T16:45:51.776Z,42.40
2019-04-27T16:47:28.216Z,42.50
2019-04-27T16:49:07.331Z,42.50
2019-04-27T16:50:41.448Z,42.60
2019-04-27T16:52:19.253Z,42.60
2019-04-27T16:53:54.942Z,42.60
2019-04-27T16:55:34.176Z,42.60
2019-04-27T16:57:10.347Z,42.80
2019-04-27T16:58:49.001Z,42.80
2019-04-27T17:00:26.539Z,42.90
2019-04-27T17:02:02.192Z,43.20
2019-04-27T17:03:38.944Z,43.20
2019-04-27T17:05:15.457Z,43.30
2019-04-27T17:06:52.050Z,43.30
2019-04-27T17:08:29.091Z,43.40
2019-04-27T17:10:05.914Z,43.50
2019-04-27T17:11:43.605Z,43.50
2019-04-27T17:13:19.329Z,43.40
2019-04-27T17:14:59.429Z,43.40
2019-04-27T17:16:51.911Z,43.40
2019-04-27T17:18:44.842Z,43.40
2019-04-27T17:20:21.365Z,43.90
2019-04-27T17:21:56.961Z,42.90
2019-04-27T17:23:32.477Z,43.20
2019-04-27T17:25:08.930Z,43.40
2019-04-27T17:26:44.799Z,43.30
2019-04-27T17:28:20.334Z,43.50
2019-04-27T17:30:00.756Z,43.30
2019-04-27T17:31:35.119Z,43.80
2019-04-27T17:33:28.620Z,44.00
2019-04-27T17:35:08.830Z,44.40
2019-04-27T17:36:42.887Z,44.40
2019-04-27T17:38:18.394Z,44.40
2019-04-27T17:39:59.494Z,44.20
2019-04-27T17:41:31.227Z,44.00
2019-04-27T17:43:09.901Z,43.90
2019-04-27T17:44:43.965Z,43.70
2019-04-27T17:46:19.976Z,43.40
2019-04-27T17:48:00.386Z,43.10
2019-04-27T17:49:33.921Z,43.80
2019-04-27T17:51:09.955Z,43.00
2019-04-27T17:52:49.766Z,43.00
2019-04-27T17:54:23.019Z,43.00
2019-04-27T17:56:02.934Z,42.90
2019-04-27T17:57:35.773Z,42.90
2019-04-27T17:59:16.939Z,43.80
2019-04-27T18:00:48.524Z,43.40
2019-04-27T18:02:24.294Z,43.90
2019-04-27T18:04:02.923Z,44.50
2019-04-27T18:05:38.972Z,45.30
2019-04-27T18:07:15.096Z,46.40
2019-04-27T18:08:55.097Z,46.80
2019-04-27T18:10:29.326Z,47.80
2019-04-27T18:12:09.660Z,48.30
2019-04-27T18:13:42.245Z,48.90
2019-04-27T18:15:18.732Z,49.10
2019-04-27T18:16:54.333Z,49.40
2019-04-27T18:18:31.483Z,49.60
2019-04-27T18:20:11.786Z,49.60
2019-04-27T18:22:01.008Z,49.60
2019-04-27T18:23:45.345Z,49.60
2019-04-27T18:25:21.278Z,49.80
2019-04-27T18:27:10.344Z,50.20
2019-04-27T18:28:52.288Z,50.60
2019-04-27T18:30:28.748Z,50.90
2019-04-27T18:32:06.128Z,51.00
2019-04-27T18:33:41.741Z,51.50
2019-04-27T18:35:19.952Z,51.70
2019-04-27T18:36:54.969Z,51.80
2019-04-27T18:38:30.768Z,52.60
2019-04-27T18:40:09.304Z,52.50
2019-04-27T18:41:50.542Z,52.90
2019-04-27T18:43:22.585Z,53.60
2019-04-27T18:45:06.014Z,53.80
2019-04-27T18:46:35.675Z,55.10
2019-04-27T18:48:13.712Z,55.60
2019-04-27T18:50:07.350Z,56.10
2019-04-27T18:51:38.741Z,56.50
2019-04-27T18:53:16.461Z,56.80
2019-04-27T18:54:53.146Z,57.20
2019-04-27T18:56:29.072Z,57.30
2019-04-27T18:58:06.185Z,57.80
2019-04-27T18:59:41.710Z,58.30
2019-04-27T19:01:18.771Z,58.50
2019-04-27T19:02:54.591Z,58.60
2019-04-27T19:04:30.117Z,58.60
2019-04-27T19:06:05.695Z,58.80
2019-04-27T19:07:41.413Z,59.10
2019-04-27T19:09:18.696Z,59.10
2019-04-27T19:10:54.261Z,59.10
2019-04-27T19:12:29.778Z,60.20
2019-04-27T19:14:05.301Z,59.80
2019-04-27T19:15:40.847Z,60.20
2019-04-27T19:17:19.523Z,60.40
2019-04-27T19:18:53.592Z,60.70
2019-04-27T19:20:29.110Z,60.40
2019-04-27T19:22:04.654Z,60.40
2019-04-27T19:23:40.488Z,60.80
2019-04-27T19:25:18.340Z,60.80
2019-04-27T19:26:55.664Z,60.80
2019-04-27T19:28:39.212Z,60.70
2019-04-27T19:30:16.623Z,60.80
2019-04-27T19:31:58.524Z,60.40
2019-04-27T19:33:33.948Z,61.20
2019-04-27T19:35:09.466Z,60.70
2019-04-27T19:36:44.981Z,60.90
2019-04-27T19:38:20.514Z,60.40
2019-04-27T19:39:56.038Z,60.10
2019-04-27T19:41:31.580Z,60.40
2019-04-27T19:43:07.103Z,59.60
2019-04-27T19:44:42.624Z,60.10
2019-04-27T19:46:19.950Z,59.90
2019-04-27T19:47:55.680Z,59.90
2019-04-27T19:49:31.714Z,60.00
2019-04-27T19:51:09.050Z,60.40
2019-04-27T19:52:44.723Z,60.20
2019-04-27T19:54:21.751Z,60.00
2019-04-27T19:56:04.352Z,60.10
2019-04-27T19:57:42.077Z,60.00
2019-04-27T19:59:24.784Z,60.00
2019-04-27T20:01:14.275Z,60.60
2019-04-27T20:02:48.337Z,60.60
2019-04-27T20:04:28.199Z,60.80
2019-04-27T20:06:03.721Z,61.20
2019-04-27T20:07:39.252Z,61.00
2019-04-27T20:09:19.284Z,61.00
2019-04-27T20:10:54.823Z,61.40
2019-04-27T20:12:31.351Z,61.40
2019-04-27T20:14:07.058Z,61.50
2019-04-27T20:15:43.647Z,61.40
2019-04-27T20:17:20.539Z,61.70
2019-04-27T20:18:56.415Z,61.60
2019-04-27T20:20:31.952Z,61.60
2019-04-27T20:22:07.733Z,61.50
2019-04-27T20:23:43.257Z,61.60
2019-04-27T20:25:19.056Z,61.90
2019-04-27T20:26:54.644Z,62.00
2019-04-27T20:28:31.462Z,62.10
2019-04-27T20:30:11.111Z,62.00
2019-04-27T20:31:48.334Z,62.30
2019-04-27T20:33:23.852Z,62.30
2019-04-27T20:35:01.333Z,62.50
2019-04-27T20:36:36.675Z,62.50
2019-04-27T20:38:12.857Z,62.80
2019-04-27T20:39:48.847Z,63.00
2019-04-27T20:41:24.383Z,63.10
2019-04-27T20:43:01.546Z,63.30
2019-04-27T20:44:38.278Z,63.30
2019-04-27T20:46:13.791Z,63.10
2019-04-27T20:47:52.348Z,63.00
2019-04-27T20:49:26.815Z,63.10
2019-04-27T20:51:02.351Z,63.00
2019-04-27T20:52:40.451Z,63.20
2019-04-27T20:54:15.978Z,63.00
2019-04-27T20:55:51.737Z,63.10
2019-04-27T20:57:27.271Z,63.20
2019-04-27T20:59:02.867Z,63.10
2019-04-27T21:00:41.845Z,62.80
2019-04-27T21:02:35.187Z,62.90
2019-04-27T21:04:11.064Z,63.40
2019-04-27T21:06:04.729Z,63.30
2019-04-27T21:07:41.897Z,63.50
2019-04-27T21:09:21.155Z,63.40
2019-04-27T21:10:56.701Z,63.70
2019-04-27T21:12:32.219Z,63.50
2019-04-27T21:14:08.166Z,63.50
2019-04-27T21:15:43.692Z,63.40
2019-04-27T21:17:19.217Z,63.10
2019-04-27T21:18:54.760Z,63.20
2019-04-27T21:20:30.998Z,64.00
2019-04-27T21:22:06.578Z,63.20
2019-04-27T21:23:42.107Z,62.90
2019-04-27T21:25:17.628Z,62.80
2019-04-27T21:26:53.177Z,62.70
2019-04-27T21:28:28.678Z,62.80
2019-04-27T21:30:05.239Z,62.90
2019-04-27T21:31:41.833Z,62.80
2019-04-27T21:33:18.474Z,62.70